Time,TemperatureF,DewpointF,PressureIn,WindDirection,WindDirectionDegrees,WindSpeedMPH,WindSpeedGustMPH,Humidity,HourlyPrecipIn,Conditions,Clouds,dailyrainin,SolarRadiationWatts/m^2,SoftwareType,DateUTC
2013-09-04 08:40:00,74.0,45.0,30.07,SSW,201,2.0,4.0,36,-99.99,,,-99.99,392.000000,,2013-09-04 15:40:00,
2013-09-04 09:40:00,73.0,46.0,30.08,WSW,258,3.0,4.0,39,-99.99,,,-99.99,614.000000,,2013-09-04 16:40:00,
2013-09-04 10:22:00,73.0,46.0,30.08,WSW,258,3.0,4.0,39,-99.99,,,-99.99,614.000000,,2013-09-04 17:22:00,
2013-09-04 10:34:00,73.0,46.0,30.08,WSW,258,3.0,4.0,39,-99.99,,,-99.99,614.000000,,2013-09-04 17:34:00,
2013-09-04 10:40:00,73.0,46.0,30.09,West,273,4.0,6.0,39,-99.99,,,-99.99,788.000000,,2013-09-04 17:40:00,
2013-09-04 11:21:00,73.0,46.0,30.09,West,273,4.0,6.0,39,-99.99,,,-99.99,788.000000,,2013-09-04 18:21:00,
2013-09-04 11:32:00,73.0,46.0,30.09,West,273,4.0,6.0,39,-99.99,,,-99.99,788.000000,,2013-09-04 18:32:00,
2013-09-04 11:40:00,74.0,47.0,30.09,West,271,4.0,6.0,38,-99.99,,,-99.99,903.000000,,2013-09-04 18:40:00,
2013-09-04 12:22:00,74.0,47.0,30.09,West,271,4.0,6.0,38,-99.99,,,-99.99,903.000000,,2013-09-04 19:22:00,
2013-09-04 12:32:00,74.0,47.0,30.09,West,271,4.0,6.0,38,-99.99,,,-99.99,903.000000,,2013-09-04 19:32:00,
2013-09-04 12:40:00,75.0,47.0,30.08,West,271,5.0,8.0,37,-99.99,,,-99.99,961.000000,,2013-09-04 19:40:00,
2013-09-04 13:22:00,75.0,47.0,30.08,West,271,5.0,8.0,37,-99.99,,,-99.99,961.000000,,2013-09-04 20:22:00,
2013-09-04 13:32:00,75.0,47.0,30.08,West,271,5.0,8.0,37,-99.99,,,-99.99,961.000000,,2013-09-04 20:32:00,
2013-09-04 13:40:00,77.0,46.0,30.07,West,271,5.0,8.0,34,-99.99,,,-99.99,953.000000,,2013-09-04 20:40:00,
2013-09-04 14:22:00,77.0,46.0,30.07,West,271,5.0,8.0,34,-99.99,,,-99.99,953.000000,,2013-09-04 21:22:00,
2013-09-04 14:34:00,77.0,46.0,30.07,West,271,5.0,8.0,34,-99.99,,,-99.99,953.000000,,2013-09-04 21:34:00,
2013-09-04 14:40:00,77.0,47.0,30.07,West,265,6.0,9.0,34,-99.99,,,-99.99,874.000000,,2013-09-04 21:40:00,
2013-09-04 15:23:00,77.0,47.0,30.07,West,265,6.0,9.0,34,-99.99,,,-99.99,874.000000,,2013-09-04 22:23:00,
2013-09-04 15:33:00,77.0,47.0,30.07,West,265,6.0,9.0,34,-99.99,,,-99.99,874.000000,,2013-09-04 22:33:00,
2013-09-04 15:40:00,77.0,48.0,30.05,WSW,253,5.0,10.0,35,-99.99,,,-99.99,742.000000,,2013-09-04 22:40:00,
2013-09-04 16:40:00,79.0,48.0,30.04,West,271,4.0,7.0,34,-99.99,,,-99.99,564.000000,,2013-09-04 23:40:00,
2013-09-04 17:40:00,78.0,48.0,30.03,WSW,255,5.0,8.0,34,-99.99,,,-99.99,353.000000,,2013-09-05 00:40:00,
2013-09-04 18:40:00,77.0,47.0,30.03,West,279,4.0,6.0,34,-99.99,,,-99.99,140.000000,,2013-09-05 01:40:00,
2013-09-04 19:22:00,77.0,47.0,30.03,West,279,4.0,6.0,34,-99.99,,,-99.99,140.000000,,2013-09-05 02:22:00,
2013-09-04 19:32:00,77.0,47.0,30.03,West,279,4.0,6.0,34,-99.99,,,-99.99,140.000000,,2013-09-05 02:32:00,
2013-09-04 19:40:00,74.0,48.0,30.02,West,270,1.0,2.0,39,-99.99,,,-99.99,4.000000,,2013-09-05 02:40:00,
2013-09-04 20:22:00,74.0,48.0,30.02,West,270,1.0,2.0,39,-99.99,,,-99.99,4.000000,,2013-09-05 03:22:00,
2013-09-04 20:34:00,74.0,48.0,30.02,West,270,1.0,2.0,39,-99.99,,,-99.99,4.000000,,2013-09-05 03:34:00,
2013-09-04 23:21:00,72.0,48.0,30.04,SW,229,0.0,2.0,42,-99.99,,,-99.99,0.000000,,2013-09-05 06:21:00,
2013-09-04 23:32:00,72.0,48.0,30.04,SW,229,0.0,2.0,42,-99.99,,,-99.99,0.000000,,2013-09-05 06:32:00,